ZKZGO NZAR-NZAR

Flight info

Callsign ZKZGO
Flight time 0h 30m
Altitude 1500
Route URDOR1S MAGEX DCT NZAR
Aircraft C25C/M-S/L

Departure

Time 2026-04-18 04:30
Airport Ardmore Airport (NZAR)

Arrival

Time 2026-04-18 05:00
Airport Ardmore Airport (NZAR)
Time Latitude Longitude Altitude Speed Heading
2026-04-18 04:25 -37.03142 174.97932 109 ft 0 kts 314°
2026-04-18 04:26 -37.03135 174.97922 108 ft 8 kts 312°
2026-04-18 04:26 -37.03088 174.97857 109 ft 8 kts 294°
2026-04-18 04:26 -37.03130 174.97778 108 ft 7 kts 271°
2026-04-18 04:26 -37.03080 174.97703 109 ft 20 kts 316°
2026-04-18 04:27 -37.03041 174.97605 110 ft 12 kts 220°
2026-04-18 04:27 -37.03142 174.97477 109 ft 25 kts 225°
2026-04-18 04:27 -37.03263 174.97323 110 ft 25 kts 224°
2026-04-18 04:27 -37.03388 174.97163 109 ft 26 kts 226°
2026-04-18 04:28 -37.03516 174.97003 107 ft 19 kts 229°
2026-04-18 04:28 -37.03485 174.96940 110 ft 5 kts 32°
2026-04-18 04:28 -37.03482 174.96943 110 ft 0 kts 47°
2026-04-18 04:29 -37.03311 174.97159 111 ft 97 kts 44°
2026-04-18 04:30 -37.02621 174.98027 486 ft 171 kts 39°
2026-04-18 04:30 -37.01918 174.99333 744 ft 186 kts 63°
2026-04-18 04:30 -37.01382 175.00768 1010 ft 178 kts 53°
2026-04-18 04:30 -37.00861 175.01830 1254 ft 175 kts 52°
2026-04-18 04:31 -37.00262 175.03166 1500 ft 180 kts 53°
2026-04-18 04:31 -36.99642 175.04605 1502 ft 195 kts 57°
2026-04-18 04:31 -36.99250 175.06298 1505 ft 208 kts 71°
2026-04-18 04:31 -36.98846 175.08052 1502 ft 215 kts 67°
2026-04-18 04:32 -36.98412 175.09876 1506 ft 222 kts 67°
2026-04-18 04:32 -36.97984 175.11715 1522 ft 224 kts 68°
2026-04-18 04:32 -36.97560 175.13591 1505 ft 226 kts 69°
2026-04-18 04:32 -36.97114 175.15507 1525 ft 232 kts 68°
2026-04-18 04:33 -36.96641 175.17456 1516 ft 235 kts 65°
2026-04-18 04:33 -36.95814 175.19171 1510 ft 229 kts 45°
2026-04-18 04:33 -36.94819 175.20709 1570 ft 224 kts 47°
2026-04-18 04:33 -36.93895 175.22262 1702 ft 221 kts 48°
2026-04-18 04:34 -36.92964 175.23773 1826 ft 217 kts 46°
2026-04-18 04:34 -36.92038 175.25250 1954 ft 214 kts 46°
2026-04-18 04:34 -36.91140 175.26703 2186 ft 207 kts 46°
2026-04-18 04:34 -36.90287 175.28088 2427 ft 201 kts 46°
2026-04-18 04:35 -36.89433 175.29444 2662 ft 197 kts 46°
2026-04-18 04:35 -36.88526 175.30684 2889 ft 189 kts 27°
2026-04-18 04:35 -36.87304 175.30996 3130 ft 178 kts 353°
2026-04-18 04:35 -36.86193 175.30436 3369 ft 175 kts 318°
2026-04-18 04:36 -36.85519 175.29184 3614 ft 179 kts 289°
2026-04-18 04:36 -36.85574 175.27617 3854 ft 188 kts 256°
2026-04-18 04:36 -36.86317 175.26243 4100 ft 193 kts 236°
2026-04-18 04:36 -36.87130 175.24927 4356 ft 191 kts 239°
2026-04-18 04:37 -36.87968 175.23630 4517 ft 197 kts 232°
2026-04-18 04:37 -36.89274 175.22931 4508 ft 222 kts 184°
2026-04-18 04:37 -36.90776 175.23588 4339 ft 244 kts 143°
2026-04-18 04:37 -36.91726 175.25376 4067 ft 256 kts 102°
2026-04-18 04:38 -36.91642 175.27560 3816 ft 253 kts 65°
2026-04-18 04:38 -36.90604 175.29158 3571 ft 227 kts 31°
2026-04-18 04:38 -36.89338 175.30214 3530 ft 212 kts 28°
2026-04-18 04:38 -36.88090 175.31049 3522 ft 195 kts 13°
2026-04-18 04:39 -36.86802 175.31210 3519 ft 183 kts 349°
2026-04-18 04:39 -36.85638 175.30699 3526 ft 180 kts 327°
2026-04-18 04:39 -36.84742 175.29627 3523 ft 180 kts 304°
2026-04-18 04:39 -36.84285 175.28170 3521 ft 183 kts 282°
2026-04-18 04:40 -36.84351 175.26575 3521 ft 189 kts 260°
2026-04-18 04:40 -36.84947 175.25086 3517 ft 197 kts 238°
2026-04-18 04:40 -36.85998 175.23947 3522 ft 205 kts 216°
2026-04-18 04:40 -36.87360 175.23348 3517 ft 212 kts 193°
2026-04-18 04:41 -36.88853 175.23397 3521 ft 218 kts 172°
2026-04-18 04:41 -36.90265 175.24107 3521 ft 221 kts 149°
2026-04-18 04:41 -36.91400 175.25388 3519 ft 221 kts 127°
2026-04-18 04:41 -36.92109 175.27077 3521 ft 219 kts 105°
2026-04-18 04:42 -36.92304 175.28943 3520 ft 215 kts 83°
2026-04-18 04:42 -36.92041 175.30497 3519 ft 202 kts 64°
2026-04-18 04:42 -36.91369 175.31847 3522 ft 179 kts 40°
2026-04-18 04:42 -36.90407 175.32645 3519 ft 157 kts 13°
2026-04-18 04:43 -36.89391 175.32783 3516 ft 140 kts 346°
2026-04-18 04:43 -36.88541 175.32267 3523 ft 141 kts 316°
2026-04-18 04:43 -36.88051 175.31202 3530 ft 142 kts 287°
2026-04-18 04:43 -36.88089 175.29996 3530 ft 143 kts 254°
2026-04-18 04:44 -36.88712 175.29027 3541 ft 149 kts 221°
2026-04-18 04:44 -36.89691 175.28527 3534 ft 163 kts 192°
2026-04-18 04:44 -36.90760 175.28170 3501 ft 155 kts 227°
2026-04-18 04:44 -36.90997 175.27001 3514 ft 145 kts 286°
2026-04-18 04:45 -36.90826 175.25725 3542 ft 156 kts 270°
2026-04-18 04:45 -36.90971 175.24314 3399 ft 173 kts 262°
2026-04-18 04:45 -36.91442 175.22825 3243 ft 196 kts 245°
2026-04-18 04:45 -36.92167 175.21301 3078 ft 210 kts 242°
2026-04-18 04:46 -36.93119 175.19837 2671 ft 223 kts 231°
2026-04-18 04:46 -36.94106 175.18322 1998 ft 227 kts 240°
2026-04-18 04:46 -36.94841 175.16599 1522 ft 218 kts 248°
2026-04-18 04:46 -36.95503 175.14950 1509 ft 207 kts 246°
2026-04-18 04:47 -36.96171 175.13388 1507 ft 200 kts 246°
2026-04-18 04:47 -36.96809 175.11876 1515 ft 194 kts 246°
2026-04-18 04:47 -36.97439 175.10382 1444 ft 195 kts 246°
2026-04-18 04:47 -36.98084 175.08882 1333 ft 196 kts 246°
2026-04-18 04:48 -36.98722 175.07370 1238 ft 197 kts 246°
2026-04-18 04:48 -36.99429 175.05890 1123 ft 199 kts 242°
2026-04-18 04:48 -37.00210 175.04481 1089 ft 198 kts 229°
2026-04-18 04:48 -37.01246 175.03358 1086 ft 195 kts 225°
2026-04-18 04:49 -37.02260 175.02251 1078 ft 193 kts 226°
2026-04-18 04:49 -37.03266 175.01163 1077 ft 187 kts 227°
2026-04-18 04:49 -37.04154 175.00028 1085 ft 183 kts 230°
2026-04-18 04:49 -37.05032 174.98874 1017 ft 185 kts 230°
2026-04-18 04:50 -37.05915 174.97706 865 ft 184 kts 233°
2026-04-18 04:50 -37.06315 174.96329 713 ft 160 kts 281°
2026-04-18 04:50 -37.05794 174.95262 688 ft 140 kts 320°
2026-04-18 04:50 -37.05014 174.94677 640 ft 118 kts 354°
2026-04-18 04:51 -37.04337 174.95092 536 ft 129 kts 52°
2026-04-18 04:51 -37.03941 174.96335 625 ft 162 kts 55°
2026-04-18 04:51 -37.03226 174.97367 742 ft 164 kts 43°
2026-04-18 04:51 -37.02433 174.98528 860 ft 185 kts 46°
2026-04-18 04:52 -37.01621 174.99859 990 ft 199 kts 59°
2026-04-18 04:52 -37.01562 175.01540 1077 ft 198 kts 109°
2026-04-18 04:52 -37.02364 175.02923 1086 ft 197 kts 135°
2026-04-18 04:52 -37.03472 175.03771 1083 ft 178 kts 175°
2026-04-18 04:53 -37.04480 175.03288 1106 ft 158 kts 243°
2026-04-18 04:53 -37.04788 175.01906 1102 ft 173 kts 257°
2026-04-18 04:53 -37.04883 175.00365 1103 ft 179 kts 271°
2026-04-18 04:53 -37.05167 174.98864 1098 ft 184 kts 240°
2026-04-18 04:54 -37.06034 174.97679 1090 ft 186 kts 229°
2026-04-18 04:54 -37.06908 174.96499 1095 ft 185 kts 231°
2026-04-18 04:54 -37.07796 174.95333 1096 ft 184 kts 230°
2026-04-18 04:54 -37.08652 174.94204 1097 ft 178 kts 231°
2026-04-18 04:55 -37.09505 174.93098 1092 ft 174 kts 230°
2026-04-18 04:55 -37.10345 174.92024 1076 ft 171 kts 232°
2026-04-18 04:55 -37.11172 174.90973 1080 ft 167 kts 231°
2026-04-18 04:56 -37.12776 174.88904 1077 ft 163 kts 231°
2026-04-18 04:56 -37.13411 174.87790 1064 ft 155 kts 263°
2026-04-18 04:56 -37.13089 174.86603 1079 ft 143 kts 304°
2026-04-18 04:56 -37.12417 174.85657 1067 ft 149 kts 328°
2026-04-18 04:57 -37.11401 174.85335 1080 ft 153 kts 351°
2026-04-18 04:57 -37.10362 174.85693 1077 ft 162 kts 30°
2026-04-18 04:57 -37.09622 174.86786 1069 ft 172 kts 62°
2026-04-18 04:57 -37.09199 174.88191 1080 ft 172 kts 62°
2026-04-18 04:58 -37.08700 174.89538 1083 ft 174 kts 60°
2026-04-18 04:58 -37.08183 174.90918 1082 ft 175 kts 54°
2026-04-18 04:58 -37.07336 174.91968 1079 ft 172 kts 37°
2026-04-18 04:58 -37.06520 174.93052 962 ft 167 kts 46°
2026-04-18 04:59 -37.05821 174.93987 799 ft 128 kts 36°
2026-04-18 04:59 -37.05209 174.94724 639 ft 126 kts 39°
2026-04-18 04:59 -37.04584 174.95538 514 ft 134 kts 41°
2026-04-18 04:59 -37.03943 174.96341 312 ft 125 kts 44°
2026-04-18 05:00 -37.03389 174.97064 112 ft 101 kts 42°
2026-04-18 05:00 -37.03030 174.97515 109 ft 29 kts 46°
2026-04-18 05:00 -37.02997 174.97601 107 ft 10 kts 133°
2026-04-18 05:00 -37.03063 174.97681 106 ft 14 kts 135°
2026-04-18 05:01 -37.03133 174.97770 106 ft 10 kts 112°
2026-04-18 05:01 -37.03094 174.97842 105 ft 13 kts 102°
2026-04-18 05:01 -37.03150 174.97888 106 ft 5 kts 121°
2026-04-18 05:01 -37.03143 174.97916 106 ft 0 kts 40°